createdAt,value
2022-11-24T00:00:49.650Z,99964.16
2022-11-24T00:03:15.853Z,99963.44
2022-11-24T00:05:42.111Z,99966.28
2022-11-24T00:08:08.292Z,99960.44
2022-11-24T00:10:34.472Z,99972.06
2022-11-24T00:13:00.660Z,99968.41
2022-11-24T00:15:26.839Z,99972.56
2022-11-24T00:17:53.002Z,99983.47
2022-11-24T00:20:19.114Z,99978.66
2022-11-24T00:22:45.296Z,99975.78
2022-11-24T00:25:11.421Z,99976.06
2022-11-24T00:27:37.541Z,99972.88
2022-11-24T00:30:03.690Z,99981.19
2022-11-24T00:32:29.831Z,99975.66
2022-11-24T00:34:55.959Z,99978.66
2022-11-24T00:37:22.103Z,99978.16
2022-11-24T00:39:48.271Z,99986.59
2022-11-24T00:42:14.405Z,99982.97
2022-11-24T00:44:40.524Z,99978.69
2022-11-24T00:47:06.804Z,99976.16
2022-11-24T00:49:33.080Z,99976.03
2022-11-24T00:51:59.231Z,99991.34
2022-11-24T00:54:25.363Z,99993.88
2022-11-24T00:56:51.528Z,99984.28
2022-11-24T00:59:17.692Z,99995.25
2022-11-24T01:01:43.927Z,99996.13
2022-11-24T01:04:10.176Z,100008.88
2022-11-24T01:06:36.297Z,100011.28
2022-11-24T01:09:02.437Z,100013.22
2022-11-24T01:11:28.598Z,100007.38
2022-11-24T01:13:54.736Z,100016.06
2022-11-24T01:16:20.960Z,100023.00
2022-11-24T01:18:47.102Z,100025.53
2022-11-24T01:21:13.238Z,100034.94
2022-11-24T01:23:39.407Z,100035.50
2022-11-24T01:26:05.526Z,100043.00
2022-11-24T01:28:31.656Z,100040.84
2022-11-24T01:30:57.822Z,100045.69
2022-11-24T01:33:23.991Z,100053.63
2022-11-24T01:35:50.125Z,100049.09
2022-11-24T01:38:16.248Z,100047.75
2022-11-24T01:40:42.415Z,100049.31
2022-11-24T01:43:08.566Z,100055.44
2022-11-24T01:45:34.738Z,100054.13
2022-11-24T01:48:00.909Z,100068.16
2022-11-24T01:50:27.224Z,100065.63
2022-11-24T01:52:53.356Z,100070.59
2022-11-24T01:55:19.510Z,100075.81
2022-11-24T01:57:45.710Z,100070.66
2022-11-24T02:00:11.883Z,100075.81
2022-11-24T02:02:38.045Z,100073.06
2022-11-24T02:05:04.209Z,100076.44
2022-11-24T02:07:30.386Z,100073.69
2022-11-24T02:09:56.569Z,100080.06
2022-11-24T02:12:22.739Z,100074.09
2022-11-24T02:14:48.862Z,100073.31
2022-11-24T02:17:15.026Z,100070.22
2022-11-24T02:19:41.155Z,100074.50
2022-11-24T02:22:07.281Z,100075.47
2022-11-24T02:24:33.640Z,100073.69
2022-11-24T02:27:00.015Z,100072.25
2022-11-24T02:29:26.147Z,100064.50
2022-11-24T02:31:52.458Z,100065.63
2022-11-24T02:34:18.643Z,100062.16
2022-11-24T02:36:44.758Z,100068.28
2022-11-24T02:39:10.932Z,100072.50
2022-11-24T02:41:37.041Z,100071.13
2022-11-24T02:44:03.209Z,100072.69
2022-11-24T02:46:29.418Z,100068.66
2022-11-24T02:48:55.565Z,100073.22
2022-11-24T02:51:21.714Z,100070.94
2022-11-24T02:53:47.835Z,100075.69
2022-11-24T02:56:14.006Z,100070.94
2022-11-24T02:58:40.116Z,100072.81
2022-11-24T03:01:06.367Z,100077.63
2022-11-24T03:03:32.567Z,100082.56
2022-11-24T03:05:58.719Z,100087.81
2022-11-24T03:08:24.855Z,100084.34
2022-11-24T03:10:50.970Z,100093.53
2022-11-24T03:13:17.126Z,100089.19
2022-11-24T03:15:43.337Z,100088.53
2022-11-24T03:18:09.478Z,100086.00
2022-11-24T03:20:35.647Z,100084.69
2022-11-24T03:23:01.798Z,100097.81
2022-11-24T03:25:27.963Z,100087.88
2022-11-24T03:27:54.110Z,100093.84
2022-11-24T03:30:20.227Z,100093.59
2022-11-24T03:32:46.349Z,100097.47
2022-11-24T03:35:12.491Z,100088.81
2022-11-24T03:37:38.618Z,100093.69
2022-11-24T03:40:04.761Z,100085.56
2022-11-24T03:42:30.893Z,100085.31
2022-11-24T03:44:57.041Z,100092.16
2022-11-24T03:47:23.150Z,100087.91
2022-11-24T03:49:49.278Z,100093.19
2022-11-24T03:52:15.417Z,100095.69
2022-11-24T03:54:41.569Z,100107.25
2022-11-24T03:57:07.683Z,100112.59
2022-11-24T03:59:33.823Z,100108.91
2022-11-24T04:01:59.985Z,100108.25
2022-11-24T04:04:26.157Z,100112.19
2022-11-24T04:06:52.305Z,100110.47
2022-11-24T04:09:18.453Z,100101.81
2022-11-24T04:11:44.611Z,100117.66
2022-11-24T04:14:13.777Z,100118.69
2022-11-24T04:16:40.147Z,100127.25
2022-11-24T04:19:06.309Z,100119.47
2022-11-24T04:21:32.475Z,100124.13
2022-11-24T04:23:58.623Z,100126.75
2022-11-24T04:26:24.756Z,100125.63
2022-11-24T04:28:50.893Z,100120.44
2022-11-24T04:31:17.065Z,100124.06
2022-11-24T04:33:43.223Z,100118.94
2022-11-24T04:36:09.348Z,100125.03
2022-11-24T04:39:23.849Z,100128.63
2022-11-24T04:41:21.600Z,100131.66
2022-11-24T04:43:47.739Z,100134.31
2022-11-24T04:46:13.896Z,100100.34
2022-11-24T04:48:40.086Z,100137.66
2022-11-24T04:51:06.223Z,100142.97
2022-11-24T04:53:32.349Z,100141.09
2022-11-24T04:55:58.491Z,100135.97
2022-11-24T04:58:24.668Z,100144.41
2022-11-24T05:00:50.785Z,100142.69
2022-11-24T05:03:16.894Z,100146.09
2022-11-24T05:05:43.042Z,100137.38
2022-11-24T05:08:09.167Z,100143.13
2022-11-24T05:10:35.346Z,100145.66
2022-11-24T05:13:01.468Z,100137.00
2022-11-24T05:15:27.654Z,100138.88
2022-11-24T05:17:53.857Z,100145.38
2022-11-24T05:20:19.970Z,100144.00
2022-11-24T05:22:46.154Z,100152.78
2022-11-24T05:25:12.331Z,100153.69
2022-11-24T05:27:38.503Z,100157.13
2022-11-24T05:30:04.670Z,100163.13
2022-11-24T05:32:30.862Z,100160.03
2022-11-24T05:34:57.027Z,100168.44
2022-11-24T05:37:23.182Z,100159.72
2022-11-24T05:39:49.317Z,100169.75
2022-11-24T05:42:15.514Z,100170.84
2022-11-24T05:44:41.691Z,100174.31
2022-11-24T05:47:07.903Z,100183.63
2022-11-24T05:49:34.134Z,100181.31
2022-11-24T05:52:00.302Z,100187.97
2022-11-24T05:54:26.445Z,100182.84
2022-11-24T05:56:52.571Z,100193.19
2022-11-24T05:59:18.759Z,100194.09
2022-11-24T06:01:45.131Z,100196.06
2022-11-24T06:04:11.386Z,100197.56
2022-11-24T06:06:37.515Z,100202.75
2022-11-24T06:09:03.628Z,100196.78
2022-11-24T06:11:29.767Z,100199.38
2022-11-24T06:13:55.953Z,100197.69
2022-11-24T06:16:22.409Z,100197.69
2022-11-24T06:18:48.617Z,100203.00
2022-11-24T06:21:14.795Z,100202.25
2022-11-24T06:23:40.924Z,100204.63
2022-11-24T06:26:07.075Z,100216.91
2022-11-24T06:28:33.304Z,100216.28
2022-11-24T06:30:59.546Z,100214.31
2022-11-24T06:33:25.696Z,100212.69
2022-11-24T06:35:51.880Z,100210.19
2022-11-24T06:38:22.938Z,100220.84
2022-11-24T06:40:50.455Z,100226.13
2022-11-24T06:43:16.613Z,100237.41
2022-11-24T06:45:42.878Z,100235.00
2022-11-24T06:48:09.049Z,100242.06
2022-11-24T06:50:35.154Z,100247.25
2022-11-24T06:53:01.334Z,100249.91
2022-11-24T06:55:27.454Z,100246.50
2022-11-24T06:57:53.636Z,100253.19
2022-11-24T07:00:19.808Z,100259.38
2022-11-24T07:02:46.309Z,100262.09
2022-11-24T07:05:12.601Z,100257.03
2022-11-24T07:07:38.876Z,100262.22
2022-11-24T07:10:05.047Z,100268.56
2022-11-24T07:12:31.227Z,100263.44
2022-11-24T07:14:57.395Z,100268.41
2022-11-24T07:17:23.506Z,100271.00
2022-11-24T07:19:49.695Z,100275.28
2022-11-24T07:22:15.843Z,100278.66
2022-11-24T07:24:41.973Z,100276.91
2022-11-24T07:27:08.124Z,100291.44
2022-11-24T07:29:34.271Z,100297.47
2022-11-24T07:32:05.305Z,100299.94
2022-11-24T07:34:32.205Z,100307.63
2022-11-24T07:36:58.593Z,100305.69
2022-11-24T07:39:24.758Z,100306.28
2022-11-24T07:41:50.937Z,100314.88
2022-11-24T07:44:17.065Z,100316.56
2022-11-24T07:46:43.213Z,100313.25
2022-11-24T07:49:09.351Z,100320.66
2022-11-24T07:51:35.489Z,100319.91
2022-11-24T07:54:01.616Z,100325.03
2022-11-24T07:56:27.736Z,100327.44
2022-11-24T07:58:53.881Z,100327.44
2022-11-24T08:01:20.130Z,100334.38
2022-11-24T08:03:47.842Z,100340.38
2022-11-24T08:06:36.271Z,100336.09
2022-11-24T08:09:00.206Z,100337.72
2022-11-24T08:11:26.355Z,100344.06
2022-11-24T08:13:52.495Z,100351.13
2022-11-24T08:16:18.766Z,100349.31
2022-11-24T08:18:44.971Z,100361.28
2022-11-24T08:21:11.104Z,100356.81
2022-11-24T08:23:37.319Z,100357.56
2022-11-24T08:26:03.496Z,100355.66
2022-11-24T08:28:29.614Z,100367.69
2022-11-24T08:30:55.810Z,100363.69
2022-11-24T08:33:21.980Z,100372.69
2022-11-24T08:35:48.171Z,100365.63
2022-11-24T08:38:14.299Z,100361.09
2022-11-24T08:40:40.448Z,100367.53
2022-11-24T08:43:06.586Z,100371.66
2022-11-24T08:45:36.770Z,100378.09
2022-11-24T08:48:07.191Z,100386.13
2022-11-24T08:50:33.392Z,100381.38
2022-11-24T08:52:59.522Z,100382.50
2022-11-24T08:55:25.643Z,100390.31
2022-11-24T08:57:51.804Z,100388.88
2022-11-24T09:00:17.963Z,100391.47
2022-11-24T09:02:44.140Z,100395.00
2022-11-24T09:05:43.346Z,100396.28
2022-11-24T09:07:56.528Z,100391.69
2022-11-24T09:10:22.750Z,100391.47
2022-11-24T09:12:48.897Z,100398.56
2022-11-24T09:15:15.040Z,100405.44
2022-11-24T09:17:41.465Z,100402.38
2022-11-24T09:20:07.627Z,100401.69
2022-11-24T09:22:33.788Z,100394.28
2022-11-24T09:24:59.916Z,100403.44
2022-11-24T09:27:26.099Z,100397.19
2022-11-24T09:29:52.247Z,100404.16
2022-11-24T09:32:18.443Z,100420.56
2022-11-24T09:34:44.631Z,100422.78
2022-11-24T09:37:10.804Z,100420.66
2022-11-24T09:39:37.125Z,100421.59
2022-11-24T09:42:03.325Z,100420.13
2022-11-24T09:44:29.513Z,100422.53
2022-11-24T09:46:55.806Z,100438.41
2022-11-24T09:49:21.993Z,100443.56
2022-11-24T09:51:48.144Z,100444.38
2022-11-24T09:54:14.351Z,100444.03
2022-11-24T09:56:40.477Z,100457.91
2022-11-24T09:59:06.615Z,100451.47
2022-11-24T10:01:32.850Z,100455.72
2022-11-24T10:04:05.686Z,100463.53
2022-11-24T10:06:32.647Z,100466.69
2022-11-24T10:08:58.755Z,100481.34
2022-11-24T10:11:24.913Z,100475.28
2022-11-24T10:13:51.038Z,100478.28
2022-11-24T10:16:17.259Z,100473.22
2022-11-24T10:18:43.509Z,100458.75
2022-11-24T10:21:09.683Z,100465.78
2022-11-24T10:23:39.740Z,100466.28
2022-11-24T10:26:06.019Z,100471.69
2022-11-24T10:28:32.223Z,100467.50
2022-11-24T10:30:58.492Z,100468.84
2022-11-24T10:33:30.388Z,100462.44
2022-11-24T10:35:57.136Z,100458.84
2022-11-24T10:38:23.254Z,100455.47
2022-11-24T10:40:56.958Z,100459.34
2022-11-24T10:43:23.786Z,100459.66
2022-11-24T10:45:50.006Z,100462.66
2022-11-24T10:48:16.154Z,100461.50
2022-11-24T10:50:42.281Z,100460.63
2022-11-24T10:53:08.415Z,100470.66
2022-11-24T10:55:34.535Z,100469.22
2022-11-24T10:58:00.692Z,100469.41
2022-11-24T11:00:26.855Z,100459.63
2022-11-24T11:02:53.025Z,100468.44
2022-11-24T11:05:19.211Z,100460.03
2022-11-24T11:07:45.411Z,100460.47
2022-11-24T11:10:11.615Z,100465.38
2022-11-24T11:12:45.334Z,100470.41
2022-11-24T11:15:11.619Z,100459.38
2022-11-24T11:17:37.795Z,100472.28
2022-11-24T11:20:04.539Z,100479.34
2022-11-24T11:22:31.000Z,100474.31
2022-11-24T11:24:57.115Z,100473.41
2022-11-24T11:27:23.312Z,100482.34
2022-11-24T11:35:21.808Z,100479.19
2022-11-24T11:37:48.010Z,100475.91
2022-11-24T11:40:14.150Z,100490.59
2022-11-24T11:45:26.498Z,100480.94
2022-11-24T11:47:52.788Z,100479.72
2022-11-24T11:50:19.004Z,100479.75
2022-11-24T11:52:45.365Z,100489.88
2022-11-24T11:55:11.525Z,100490.09
2022-11-24T11:57:37.652Z,100495.22
2022-11-24T12:00:03.817Z,100486.84
2022-11-24T12:02:30.166Z,100484.84
2022-11-24T12:04:56.386Z,100487.28
2022-11-24T12:07:22.585Z,100483.22
2022-11-24T12:09:48.810Z,100490.81
2022-11-24T12:12:14.963Z,100491.25
2022-11-24T12:14:41.136Z,100500.28
2022-11-24T12:17:07.313Z,100501.19
2022-11-24T12:19:33.795Z,100501.19
2022-11-24T12:22:00.259Z,100516.78
2022-11-24T12:24:26.504Z,100511.94
2022-11-24T12:26:52.647Z,100510.19
2022-11-24T12:29:18.844Z,100509.13
2022-11-24T12:31:45.121Z,100508.09
2022-11-24T12:34:11.297Z,100507.84
2022-11-24T12:36:37.491Z,100506.63
2022-11-24T12:39:03.618Z,100503.16
2022-11-24T12:41:45.219Z,100519.09
2022-11-24T12:44:11.468Z,100522.50
2022-11-24T12:46:37.732Z,100514.56
2022-11-24T12:49:03.874Z,100519.44
2022-11-24T12:51:30.024Z,100509.47
2022-11-24T12:53:56.215Z,100509.78
2022-11-24T12:56:22.375Z,100514.47
2022-11-24T12:58:48.547Z,100510.50
2022-11-24T13:01:16.719Z,100524.03
2022-11-24T13:03:43.314Z,100519.47
2022-11-24T13:06:09.528Z,100519.31
2022-11-24T13:08:35.660Z,100513.75
2022-11-24T13:11:01.848Z,100519.13
2022-11-24T13:13:28.003Z,100518.03
2022-11-24T13:16:28.450Z,100515.59
2022-11-24T13:18:40.386Z,100522.66
2022-11-24T13:21:06.626Z,100529.63
2022-11-24T13:23:32.763Z,100532.97
2022-11-24T13:25:58.911Z,100535.88
2022-11-24T13:28:53.941Z,100535.09
2022-11-24T13:31:11.276Z,100534.00
2022-11-24T13:33:37.492Z,100536.44
2022-11-24T13:36:03.633Z,100537.47
2022-11-24T13:38:29.837Z,100541.66
2022-11-24T13:41:20.963Z,100537.97
2022-11-24T13:43:42.168Z,100538.66
2022-11-24T13:46:08.410Z,100536.69
2022-11-24T13:48:34.542Z,100536.41
2022-11-24T13:51:00.727Z,100532.41
2022-11-24T13:53:26.943Z,100533.97
2022-11-24T13:55:53.139Z,100533.44
2022-11-24T13:58:19.270Z,100523.84
2022-11-24T14:00:45.385Z,100531.16
2022-11-24T14:03:11.634Z,100527.88
2022-11-24T14:05:37.879Z,100530.91
2022-11-24T14:08:04.172Z,100530.56
2022-11-24T14:10:30.400Z,100525.25
2022-11-24T14:12:56.534Z,100512.31
2022-11-24T14:15:22.695Z,100520.38
2022-11-24T14:17:48.836Z,100516.06
2022-11-24T14:20:15.019Z,100520.13
2022-11-24T14:22:41.193Z,100520.38
2022-11-24T14:25:07.357Z,100520.88
2022-11-24T14:27:33.570Z,100522.09
2022-11-24T14:29:59.747Z,100520.63
2022-11-24T14:32:25.916Z,100517.41
2022-11-24T14:34:52.309Z,100521.69
2022-11-24T14:37:18.530Z,100523.81
2022-11-24T14:39:44.682Z,100521.84
2022-11-24T14:42:10.828Z,100519.25
2022-11-24T14:44:37.121Z,100528.41
2022-11-24T14:47:03.458Z,100525.81
2022-11-24T14:49:29.706Z,100531.06
2022-11-24T14:51:55.837Z,100530.91
2022-11-24T14:54:21.972Z,100532.88
2022-11-24T14:56:48.126Z,100534.81
2022-11-24T14:59:14.264Z,100540.91
2022-11-24T15:01:40.504Z,100538.28
2022-11-24T15:04:09.872Z,100546.16
2022-11-24T15:06:37.883Z,100549.28
2022-11-24T15:09:03.984Z,100552.53
2022-11-24T15:11:30.114Z,100557.31
2022-11-24T15:13:56.286Z,100548.84
2022-11-24T15:16:22.457Z,100557.84
2022-11-24T15:18:48.694Z,100553.00
2022-11-24T15:21:19.217Z,100556.09
2022-11-24T15:23:45.768Z,100550.53
2022-11-24T15:26:11.931Z,100553.50
2022-11-24T15:28:38.081Z,100554.34
2022-11-24T15:31:04.363Z,100556.84
2022-11-24T15:33:30.586Z,100565.22
2022-11-24T15:35:56.763Z,100571.09
2022-11-24T15:38:22.944Z,100570.53
2022-11-24T15:40:49.139Z,100576.31
2022-11-24T15:43:15.305Z,100572.06
2022-11-24T15:45:41.523Z,100577.38
2022-11-24T15:48:07.705Z,100578.50
2022-11-24T15:50:33.933Z,100575.25
2022-11-24T15:53:00.049Z,100576.53
2022-11-24T15:55:26.192Z,100569.94
2022-11-24T15:57:52.318Z,100572.94
2022-11-24T16:00:18.522Z,100577.75
2022-11-24T16:02:44.693Z,100580.88
2022-11-24T16:05:10.834Z,100591.63
2022-11-24T16:07:37.057Z,100590.38
2022-11-24T16:10:03.344Z,100595.66
2022-11-24T16:12:29.513Z,100597.38
2022-11-24T16:14:55.676Z,100605.31
2022-11-24T16:17:21.868Z,100605.50
2022-11-24T16:19:53.319Z,100602.34
2022-11-24T16:22:26.292Z,100607.88
2022-11-24T16:24:52.496Z,100603.94
2022-11-24T16:27:18.663Z,100600.75
2022-11-24T16:29:44.844Z,100602.72
2022-11-24T16:32:10.989Z,100608.09
2022-11-24T16:34:37.387Z,100619.59
2022-11-24T16:37:03.714Z,100612.03
2022-11-24T16:39:29.832Z,100613.03
2022-11-24T16:41:56.013Z,100613.91
2022-11-24T16:44:22.158Z,100623.53
2022-11-24T16:46:48.344Z,100623.56
2022-11-24T16:49:14.512Z,100622.09
2022-11-24T16:51:40.778Z,100625.72
2022-11-24T16:54:06.934Z,100628.47
2022-11-24T16:56:33.076Z,100610.53
2022-11-24T16:58:59.197Z,100615.84
2022-11-24T17:01:25.384Z,100610.91
2022-11-24T17:03:51.584Z,100620.47
2022-11-24T17:06:17.709Z,100612.03
2022-11-24T17:08:43.857Z,100624.06
2022-11-24T17:11:10.049Z,100623.22
2022-11-24T17:13:36.213Z,100622.31
2022-11-24T17:16:02.391Z,100626.69
2022-11-24T17:18:28.537Z,100628.31
2022-11-24T17:20:54.722Z,100630.88
2022-11-24T17:23:20.858Z,100628.47
2022-11-24T17:25:47.024Z,100633.91
2022-11-24T17:28:13.160Z,100628.81
2022-11-24T17:30:39.364Z,100637.56
2022-11-24T17:33:05.495Z,100635.03
2022-11-24T17:35:31.629Z,100641.25
2022-11-24T17:37:57.783Z,100643.91
2022-11-24T17:40:28.787Z,100643.91
2022-11-24T17:42:55.403Z,100645.69
2022-11-24T17:45:21.558Z,100638.94
2022-11-24T17:47:47.707Z,100641.72
2022-11-24T17:50:13.847Z,100648.78
2022-11-24T17:52:39.959Z,100651.38
2022-11-24T17:55:06.168Z,100664.28
2022-11-24T17:57:32.314Z,100660.00
2022-11-24T17:59:58.465Z,100665.25
2022-11-24T18:02:24.725Z,100656.75
2022-11-24T18:04:50.928Z,100652.59
2022-11-24T18:07:17.100Z,100658.75
2022-11-24T18:09:43.318Z,100669.09
2022-11-24T18:12:09.465Z,100669.94
2022-11-24T18:14:35.769Z,100673.47
2022-11-24T18:17:02.189Z,100664.88
2022-11-24T18:19:28.387Z,100673.63
2022-11-24T18:21:54.678Z,100675.41
2022-11-24T18:24:24.090Z,100671.03
2022-11-24T18:26:50.550Z,100666.72
2022-11-24T18:29:16.704Z,100662.50
2022-11-24T18:31:42.910Z,100657.34
2022-11-24T18:34:09.070Z,100660.78
2022-11-24T18:36:35.255Z,100659.16
2022-11-24T18:39:01.394Z,100663.53
2022-11-24T18:41:28.111Z,100667.09
2022-11-24T18:43:54.261Z,100659.44
2022-11-24T18:46:20.518Z,100659.50
2022-11-24T18:48:46.722Z,100663.81
2022-11-24T18:51:12.933Z,100662.13
2022-11-24T18:53:39.115Z,100652.66
2022-11-24T18:56:05.328Z,100663.91
2022-11-24T18:58:31.728Z,100651.00
2022-11-24T19:00:58.007Z,100651.00
2022-11-24T19:03:24.216Z,100654.56
2022-11-24T19:05:50.870Z,100657.19
2022-11-24T19:08:17.066Z,100650.38
2022-11-24T19:10:43.293Z,100658.19
2022-11-24T19:13:09.605Z,100650.47
2022-11-24T19:15:35.800Z,100643.59
2022-11-24T19:18:02.134Z,100646.97
2022-11-24T19:20:28.411Z,100637.22
2022-11-24T19:22:54.538Z,100631.25
2022-11-24T19:25:20.695Z,100637.25
2022-11-24T19:27:46.960Z,100641.69
2022-11-24T19:30:13.150Z,100641.78
2022-11-24T19:32:39.358Z,100637.50
2022-11-24T19:35:05.790Z,100647.84
2022-11-24T19:37:32.007Z,100640.06
2022-11-24T19:39:58.187Z,100634.94
2022-11-24T19:42:24.355Z,100640.09
2022-11-24T19:44:56.206Z,100641.00
2022-11-24T19:47:22.948Z,100642.72
2022-11-24T19:49:49.169Z,100648.72
2022-11-24T19:52:15.416Z,100642.72
2022-11-24T19:54:41.613Z,100638.44
2022-11-24T19:57:07.830Z,100634.97
2022-11-24T19:59:34.000Z,100633.28
2022-11-24T20:02:00.292Z,100629.84
2022-11-24T20:04:26.594Z,100628.03
2022-11-24T20:06:52.715Z,100631.41
2022-11-24T20:09:18.893Z,100627.91
2022-11-24T20:11:45.126Z,100626.97
2022-11-24T20:14:11.334Z,100630.38
2022-11-24T20:16:37.618Z,100628.63
2022-11-24T20:19:03.792Z,100624.38
2022-11-24T20:21:29.988Z,100632.13
2022-11-24T20:23:56.186Z,100636.47
2022-11-24T20:26:22.376Z,100643.41
2022-11-24T20:28:48.586Z,100640.88
2022-11-24T20:31:14.842Z,100647.81
2022-11-24T20:33:41.119Z,100647.88
2022-11-24T20:36:07.258Z,100651.31
2022-11-24T20:38:33.426Z,100648.69
2022-11-24T20:41:02.480Z,100646.97
2022-11-24T20:43:30.776Z,100652.13
2022-11-24T20:45:57.103Z,100653.03
2022-11-24T20:48:23.272Z,100650.41
2022-11-24T20:50:51.442Z,100649.63
2022-11-24T20:53:18.078Z,100650.56
2022-11-24T20:55:44.412Z,100649.81
2022-11-24T20:58:10.588Z,100654.25
2022-11-24T21:00:36.738Z,100654.31
2022-11-24T21:03:03.249Z,100654.41
2022-11-24T21:05:29.464Z,100654.47
2022-11-24T21:07:55.697Z,100656.25
2022-11-24T21:10:22.096Z,100653.69
2022-11-24T21:12:48.259Z,100652.84
2022-11-24T21:15:14.432Z,100657.13
2022-11-24T21:17:40.664Z,100657.16
2022-11-24T21:20:06.883Z,100648.56
2022-11-24T21:22:33.097Z,100656.94
2022-11-24T21:24:59.320Z,100655.41
2022-11-24T21:27:25.510Z,100655.50
2022-11-24T21:29:51.674Z,100653.81
2022-11-24T21:32:18.226Z,100653.06
2022-11-24T21:34:44.460Z,100655.72
2022-11-24T21:37:10.713Z,100660.03
2022-11-24T21:39:37.069Z,100654.13
2022-11-24T21:42:03.232Z,100657.59
2022-11-24T21:44:29.344Z,100664.53
2022-11-24T21:46:56.212Z,100663.78
2022-11-24T21:49:22.553Z,100662.97
2022-11-24T21:51:48.697Z,100655.31
2022-11-24T21:54:14.888Z,100658.81
2022-11-24T21:56:41.091Z,100656.22
2022-11-24T21:59:07.305Z,100655.38
2022-11-24T22:01:33.607Z,100650.25
2022-11-24T22:03:59.869Z,100651.16
2022-11-24T22:06:26.038Z,100649.50
2022-11-24T22:08:52.217Z,100658.94
2022-11-24T22:11:18.380Z,100658.94
2022-11-24T22:13:44.541Z,100659.81
2022-11-24T22:16:10.704Z,100664.16
2022-11-24T22:18:36.932Z,100663.28
2022-11-24T22:21:03.071Z,100664.13
2022-11-24T22:23:29.224Z,100663.22
2022-11-24T22:25:55.388Z,100662.38
2022-11-24T22:28:21.604Z,100653.84
2022-11-24T22:30:47.754Z,100654.66
2022-11-24T22:33:13.954Z,100658.16
2022-11-24T22:35:40.265Z,100648.59
2022-11-24T22:38:06.476Z,100654.53
2022-11-24T22:40:32.682Z,100653.66
2022-11-24T22:42:58.799Z,100651.03
2022-11-24T22:45:25.068Z,100653.38
2022-11-24T22:47:51.331Z,100651.66
2022-11-24T22:50:17.497Z,100647.47
2022-11-24T22:52:43.668Z,100656.13
2022-11-24T22:55:09.864Z,100651.94
2022-11-24T22:57:35.995Z,100654.53
2022-11-24T23:00:02.197Z,100658.00
2022-11-24T23:02:28.524Z,100655.47
2022-11-24T23:04:54.759Z,100653.84
2022-11-24T23:07:20.998Z,100659.00
2022-11-24T23:09:47.226Z,100660.75
2022-11-24T23:12:13.413Z,100659.94
2022-11-24T23:14:39.561Z,100664.25
2022-11-24T23:17:05.735Z,100663.44
2022-11-24T23:19:31.915Z,100666.88
2022-11-24T23:21:58.137Z,100661.75
2022-11-24T23:24:24.349Z,100672.06
2022-11-24T23:26:50.468Z,100669.50
2022-11-24T23:29:16.610Z,100669.50
2022-11-24T23:31:42.801Z,100676.41
2022-11-24T23:34:09.069Z,100667.81
2022-11-24T23:36:35.196Z,100666.91
2022-11-24T23:39:01.399Z,100666.91
2022-11-24T23:41:27.622Z,100661.81
2022-11-24T23:43:53.805Z,100670.31
2022-11-24T23:46:19.975Z,100660.88
2022-11-24T23:48:46.141Z,100660.81
2022-11-24T23:51:12.291Z,100656.53
2022-11-24T23:53:38.421Z,100659.06
2022-11-24T23:56:04.616Z,100657.28
2022-11-24T23:58:30.727Z,100646.03
